createdAt,value
2017-01-10T00:00:56.510Z,0
2017-01-10T00:01:56.861Z,0
2017-01-10T00:02:56.816Z,0
2017-01-10T00:03:56.770Z,0
2017-01-10T00:04:56.339Z,0
2017-01-10T00:05:56.684Z,0
2017-01-10T00:06:56.639Z,0
2017-01-10T00:07:56.596Z,0
2017-01-10T00:08:56.557Z,0
2017-01-10T00:09:56.511Z,0
2017-01-10T00:10:56.465Z,0
2017-01-10T00:11:56.037Z,0
2017-01-10T00:12:56.391Z,0
2017-01-10T00:13:56.341Z,0
2017-01-10T00:14:56.295Z,0
2017-01-10T00:15:55.865Z,0
2017-01-10T00:16:56.208Z,0
2017-01-10T00:17:56.197Z,0
2017-01-10T00:18:56.125Z,0
2017-01-10T00:19:55.694Z,0
2017-01-10T00:20:55.262Z,0
2017-01-10T00:21:56.004Z,0
2017-01-10T00:22:55.950Z,0
2017-01-10T00:23:55.909Z,0
2017-01-10T00:24:55.095Z,0
2017-01-10T00:25:55.824Z,0
2017-01-10T00:26:55.785Z,0
2017-01-10T00:27:55.735Z,0
2017-01-10T00:28:55.690Z,0
2017-01-10T00:29:55.647Z,0
2017-01-10T00:30:55.604Z,0
2017-01-10T00:31:55.563Z,0
2017-01-10T00:32:55.132Z,0
2017-01-10T00:33:55.475Z,0
2017-01-10T00:34:55.045Z,0
2017-01-10T00:35:55.387Z,0
2017-01-10T00:36:54.575Z,0
2017-01-10T00:37:55.300Z,0
2017-01-10T00:38:55.262Z,0
2017-01-10T00:39:55.216Z,0
2017-01-10T00:40:54.791Z,0
2017-01-10T00:41:55.128Z,0
2017-01-10T00:42:55.086Z,0
2017-01-10T00:43:54.659Z,0
2017-01-10T00:44:55.004Z,0
2017-01-10T00:45:54.576Z,0
2017-01-10T00:46:54.530Z,0
2017-01-10T00:47:54.489Z,0
2017-01-10T00:48:54.831Z,0
2017-01-10T00:49:54.017Z,0
2017-01-10T00:50:54.768Z,0
2017-01-10T00:51:54.697Z,0
2017-01-10T00:52:54.658Z,0
2017-01-10T00:53:54.613Z,0
2017-01-10T00:54:54.181Z,0
2017-01-10T00:55:54.522Z,0
2017-01-10T00:56:54.484Z,0
2017-01-10T00:57:54.053Z,0
2017-01-10T00:58:54.404Z,0
2017-01-10T00:59:53.967Z,0
2017-01-10T01:00:54.312Z,0
2017-01-10T01:01:54.266Z,0
2017-01-10T01:02:53.850Z,0
2017-01-10T01:03:54.174Z,0
2017-01-10T01:04:53.749Z,0
2017-01-10T01:05:53.318Z,0
2017-01-10T01:06:54.048Z,0
2017-01-10T01:07:54.008Z,0
2017-01-10T01:08:53.959Z,0
2017-01-10T01:09:53.930Z,0
2017-01-10T01:10:53.493Z,0
2017-01-10T01:11:53.463Z,0
2017-01-10T01:12:53.794Z,0
2017-01-10T01:13:53.358Z,0
2017-01-10T01:14:53.344Z,0
2017-01-10T01:15:53.663Z,0
2017-01-10T01:16:53.615Z,0
2017-01-10T01:17:53.187Z,0
2017-01-10T01:18:53.530Z,0
2017-01-10T01:19:53.486Z,0
2017-01-10T01:20:53.063Z,0
2017-01-10T01:21:53.401Z,0
2017-01-10T01:22:52.972Z,0
2017-01-10T01:23:53.329Z,0
2017-01-10T01:24:53.269Z,0
2017-01-10T01:25:52.457Z,0
2017-01-10T01:26:52.796Z,0
2017-01-10T01:27:53.143Z,0
2017-01-10T01:28:53.122Z,0
2017-01-10T01:29:53.056Z,0
2017-01-10T01:30:53.018Z,0
2017-01-10T01:31:52.965Z,0
2017-01-10T01:32:52.940Z,0
2017-01-10T01:33:52.110Z,0
2017-01-10T01:34:52.461Z,0
2017-01-10T01:35:52.792Z,0
2017-01-10T01:36:52.750Z,0
2017-01-10T01:37:52.705Z,0
2017-01-10T01:38:51.900Z,0
2017-01-10T01:39:52.623Z,0
2017-01-10T01:40:51.810Z,0
2017-01-10T01:41:52.160Z,0
2017-01-10T01:42:52.113Z,0
2017-01-10T01:43:51.681Z,0
2017-01-10T01:44:52.404Z,0
2017-01-10T01:45:51.975Z,0
2017-01-10T01:46:52.320Z,0
2017-01-10T01:47:51.504Z,0
2017-01-10T01:48:51.845Z,0
2017-01-10T01:49:52.194Z,0
2017-01-10T01:50:52.148Z,0
2017-01-10T01:51:51.732Z,0
2017-01-10T01:52:52.053Z,0
2017-01-10T01:53:51.638Z,0
2017-01-10T01:54:51.977Z,0
2017-01-10T01:55:51.542Z,0
2017-01-10T01:56:51.505Z,0
2017-01-10T01:57:51.845Z,0
2017-01-10T01:58:51.803Z,0
2017-01-10T01:59:51.373Z,0
2017-01-10T02:00:51.327Z,0
2017-01-10T02:01:51.706Z,0
2017-01-10T02:02:51.622Z,0
2017-01-10T02:03:51.194Z,0
2017-01-10T02:04:51.542Z,0
2017-01-10T02:05:51.105Z,0
2017-01-10T02:06:51.450Z,0
2017-01-10T02:07:51.414Z,0
2017-01-10T02:08:50.986Z,0
2017-01-10T02:09:50.939Z,0
2017-01-10T02:10:50.913Z,0
2017-01-10T02:11:51.236Z,0
2017-01-10T02:12:50.819Z,0
2017-01-10T02:13:50.780Z,0
2017-01-10T02:14:51.104Z,0
2017-01-10T02:15:50.678Z,0
2017-01-10T02:16:51.027Z,0
2017-01-10T02:17:50.974Z,0
2017-01-10T02:18:50.933Z,0
2017-01-10T02:19:50.888Z,0
2017-01-10T02:20:50.460Z,0
2017-01-10T02:21:50.427Z,0
2017-01-10T02:22:50.372Z,0
2017-01-10T02:23:50.732Z,0
2017-01-10T02:24:50.678Z,0
2017-01-10T02:25:50.278Z,0
2017-01-10T02:26:50.585Z,0
2017-01-10T02:27:50.590Z,0
2017-01-10T02:28:50.116Z,0
2017-01-10T02:29:50.095Z,0
2017-01-10T02:30:50.044Z,0
2017-01-10T02:31:49.603Z,0
2017-01-10T02:32:49.943Z,0
2017-01-10T02:33:49.906Z,0
2017-01-10T02:34:49.861Z,0
2017-01-10T02:35:50.200Z,0
2017-01-10T02:36:49.386Z,0
2017-01-10T02:37:50.113Z,0
2017-01-10T02:38:49.303Z,0
2017-01-10T02:39:49.640Z,0
2017-01-10T02:40:49.595Z,0
2017-01-10T02:41:49.936Z,0
2017-01-10T02:42:49.895Z,0
2017-01-10T02:43:49.469Z,0
2017-01-10T02:44:49.816Z,0
2017-01-10T02:45:49.382Z,0
2017-01-10T02:46:49.763Z,0
2017-01-10T02:47:49.293Z,0
2017-01-10T02:48:49.643Z,0
2017-01-10T02:49:49.593Z,0
2017-01-10T02:50:49.546Z,0
2017-01-10T02:51:48.738Z,0
2017-01-10T02:52:49.464Z,0
2017-01-10T02:53:49.425Z,0
2017-01-10T02:54:49.381Z,0
2017-01-10T02:55:48.952Z,0
2017-01-10T02:56:49.287Z,0
2017-01-10T02:57:49.246Z,0
2017-01-10T02:58:48.818Z,0
2017-01-10T02:59:48.774Z,0
2017-01-10T03:00:49.120Z,0
2017-01-10T03:01:48.700Z,0
2017-01-10T03:02:49.033Z,0
2017-01-10T03:03:49.000Z,0
2017-01-10T03:04:48.555Z,0
2017-01-10T03:05:48.520Z,0
2017-01-10T03:06:48.859Z,0
2017-01-10T03:07:48.814Z,0
2017-01-10T03:08:48.765Z,0
2017-01-10T03:09:48.732Z,0
2017-01-10T03:10:48.300Z,0
2017-01-10T03:11:48.279Z,0
2017-01-10T03:12:48.214Z,0
2017-01-10T03:13:48.170Z,0
2017-01-10T03:14:48.512Z,0
2017-01-10T03:15:48.087Z,0
2017-01-10T03:16:48.424Z,0
2017-01-10T03:17:48.379Z,0
2017-01-10T03:18:48.335Z,0
2017-01-10T03:19:48.290Z,0
2017-01-10T03:20:48.254Z,0
2017-01-10T03:21:47.822Z,0
2017-01-10T03:22:47.777Z,0
2017-01-10T03:23:48.125Z,0
2017-01-10T03:24:48.077Z,0
2017-01-10T03:25:48.038Z,0
2017-01-10T03:26:47.603Z,0
2017-01-10T03:27:47.943Z,0
2017-01-10T03:28:47.910Z,0
2017-01-10T03:29:47.863Z,0
2017-01-10T03:30:47.850Z,0
2017-01-10T03:31:47.773Z,0
2017-01-10T03:32:47.730Z,0
2017-01-10T03:34:00.050Z,0
2017-01-10T03:34:47.655Z,0
2017-01-10T03:35:47.628Z,0
2017-01-10T03:36:47.559Z,0
2017-01-10T03:37:47.132Z,0
2017-01-10T03:38:47.471Z,0
2017-01-10T03:39:47.434Z,0
2017-01-10T03:40:47.006Z,0
2017-01-10T03:41:47.341Z,0
2017-01-10T03:42:47.297Z,0
2017-01-10T03:43:47.258Z,0
2017-01-10T03:44:46.831Z,0
2017-01-10T03:45:47.166Z,0
2017-01-10T03:46:47.128Z,0
2017-01-10T03:47:46.695Z,0
2017-01-10T03:48:46.652Z,0
2017-01-10T03:49:46.231Z,0
2017-01-10T03:50:46.952Z,0
2017-01-10T03:51:46.910Z,0
2017-01-10T03:52:46.865Z,0
2017-01-10T03:53:46.441Z,0
2017-01-10T03:54:46.779Z,0
2017-01-10T03:55:46.740Z,0
2017-01-10T03:56:46.693Z,0
2017-01-10T03:57:46.267Z,0
2017-01-10T03:58:46.613Z,0
2017-01-10T03:59:46.571Z,0
2017-01-10T04:02:31.810Z,0
2017-01-10T04:03:31.763Z,0
2017-01-10T04:04:32.108Z,0
2017-01-10T04:05:32.066Z,0
2017-01-10T04:06:31.635Z,0
2017-01-10T04:07:31.205Z,0
2017-01-10T04:08:31.931Z,0
2017-01-10T04:09:31.503Z,0
2017-01-10T04:10:31.462Z,0
2017-01-10T04:11:31.421Z,0
2017-01-10T04:12:31.760Z,0
2017-01-10T04:13:31.716Z,0
2017-01-10T04:14:31.673Z,0
2017-01-10T04:15:31.631Z,0
2017-01-10T04:16:31.198Z,0
2017-01-10T04:17:31.541Z,0
2017-01-10T04:18:30.732Z,0
2017-01-10T04:19:31.076Z,0
2017-01-10T04:20:31.416Z,0
2017-01-10T04:21:30.986Z,0
2017-01-10T04:22:31.328Z,0
2017-01-10T04:23:31.284Z,0
2017-01-10T04:24:30.097Z,0
2017-01-10T04:25:31.199Z,0
2017-01-10T04:26:31.166Z,0
2017-01-10T04:27:30.726Z,0
2017-01-10T04:28:31.065Z,0
2017-01-10T04:29:31.028Z,0
2017-01-10T04:30:30.988Z,0
2017-01-10T04:31:30.556Z,0
2017-01-10T04:32:30.894Z,0
2017-01-10T04:33:30.849Z,0
2017-01-10T04:34:30.809Z,0
2017-01-10T04:35:29.995Z,0
2017-01-10T04:36:30.337Z,0
2017-01-10T04:37:30.292Z,0
2017-01-10T04:38:30.247Z,0
2017-01-10T04:39:30.592Z,0
2017-01-10T04:40:30.582Z,0
2017-01-10T04:41:30.503Z,0
2017-01-10T04:42:30.457Z,0
2017-01-10T04:43:30.427Z,0
2017-01-10T04:44:30.383Z,0
2017-01-10T04:45:30.338Z,0
2017-01-10T04:46:29.908Z,0
2017-01-10T04:47:29.862Z,0
2017-01-10T04:48:30.203Z,0
2017-01-10T04:49:30.160Z,0
2017-01-10T04:50:30.111Z,0
2017-01-10T04:51:30.069Z,0
2017-01-10T04:52:30.027Z,0
2017-01-10T04:53:29.986Z,0
2017-01-10T04:54:29.558Z,0
2017-01-10T04:55:29.521Z,0
2017-01-10T04:56:29.859Z,0
2017-01-10T04:57:29.043Z,0
2017-01-10T04:58:29.381Z,0
2017-01-10T04:59:29.730Z,0
2017-01-10T05:00:29.683Z,0
2017-01-10T05:01:29.259Z,0
2017-01-10T05:02:29.209Z,0
2017-01-10T05:03:29.165Z,0
2017-01-10T05:04:29.508Z,0
2017-01-10T05:05:29.461Z,0
2017-01-10T05:06:29.047Z,0
2017-01-10T05:07:29.381Z,0
2017-01-10T05:08:28.957Z,0
2017-01-10T05:09:29.287Z,0
2017-01-10T05:10:28.860Z,0
2017-01-10T05:11:29.205Z,0
2017-01-10T05:12:29.159Z,0
2017-01-10T05:13:28.735Z,0
2017-01-10T05:14:29.069Z,0
2017-01-10T05:15:28.668Z,0
2017-01-10T05:16:28.985Z,0
2017-01-10T05:17:28.582Z,0
2017-01-10T05:18:28.513Z,0
2017-01-10T05:19:28.855Z,0
2017-01-10T05:20:28.036Z,0
2017-01-10T05:21:28.771Z,0
2017-01-10T05:22:28.725Z,0
2017-01-10T05:23:28.676Z,0
2017-01-10T05:24:28.254Z,0
2017-01-10T05:25:28.597Z,0
2017-01-10T05:26:28.159Z,0
2017-01-10T05:27:28.507Z,0
2017-01-10T05:28:27.688Z,0
2017-01-10T05:29:28.418Z,0
2017-01-10T05:30:27.992Z,0
2017-01-10T05:31:27.943Z,0
2017-01-10T05:32:28.299Z,0
2017-01-10T05:33:27.866Z,0
2017-01-10T05:34:28.204Z,0
2017-01-10T05:35:28.153Z,0
2017-01-10T05:36:27.730Z,0
2017-01-10T05:37:28.070Z,0
2017-01-10T05:38:27.639Z,0
2017-01-10T05:39:27.982Z,0
2017-01-10T05:40:27.955Z,0
2017-01-10T05:41:27.921Z,0
2017-01-10T05:42:27.851Z,0
2017-01-10T05:43:27.425Z,0
2017-01-10T05:44:27.790Z,0
2017-01-10T05:45:27.728Z,0
2017-01-10T05:46:26.907Z,0
2017-01-10T05:47:27.632Z,0
2017-01-10T05:48:27.594Z,0
2017-01-10T05:49:27.542Z,0
2017-01-10T05:50:27.119Z,0
2017-01-10T05:51:27.454Z,0
2017-01-10T05:52:27.023Z,0
2017-01-10T05:53:26.990Z,0
2017-01-10T05:54:26.942Z,0
2017-01-10T05:55:26.513Z,0
2017-01-10T05:56:27.242Z,0
2017-01-10T05:57:26.804Z,0
2017-01-10T05:58:27.154Z,0
2017-01-10T05:59:26.722Z,0
2017-01-10T06:00:27.060Z,0
2017-01-10T06:01:27.029Z,0
2017-01-10T06:02:26.973Z,0
2017-01-10T06:03:26.963Z,0
2017-01-10T06:04:26.890Z,0
2017-01-10T06:05:26.846Z,0
2017-01-10T06:06:26.804Z,0
2017-01-10T06:07:26.755Z,0
2017-01-10T06:08:26.711Z,0
2017-01-10T06:09:26.666Z,0
2017-01-10T06:10:26.624Z,0
2017-01-10T06:11:26.583Z,0
2017-01-10T06:12:26.538Z,0
2017-01-10T06:13:26.490Z,0
2017-01-10T06:14:26.447Z,0
2017-01-10T06:15:26.414Z,0
2017-01-10T06:16:25.980Z,0
2017-01-10T06:17:26.317Z,0
2017-01-10T06:18:26.270Z,0
2017-01-10T06:19:26.249Z,0
2017-01-10T06:20:26.184Z,0
2017-01-10T06:21:25.758Z,0
2017-01-10T06:22:25.324Z,0
2017-01-10T06:23:26.061Z,0
2017-01-10T06:24:26.014Z,0
2017-01-10T06:25:25.969Z,0
2017-01-10T06:26:25.923Z,0
2017-01-10T06:27:25.108Z,0
2017-01-10T06:28:25.835Z,0
2017-01-10T06:29:25.796Z,0
2017-01-10T06:30:25.747Z,0
2017-01-10T06:31:25.318Z,0
2017-01-10T06:32:25.276Z,0
2017-01-10T06:33:25.614Z,0
2017-01-10T06:34:25.185Z,4
2017-01-10T06:35:25.534Z,0
2017-01-10T06:36:25.484Z,0
2017-01-10T06:37:25.442Z,4
2017-01-10T06:38:25.401Z,4
2017-01-10T06:39:24.967Z,4
2017-01-10T06:40:25.312Z,4
2017-01-10T06:41:25.274Z,4
2017-01-10T06:42:25.215Z,4
2017-01-10T06:43:24.805Z,8
2017-01-10T06:44:24.765Z,8
2017-01-10T06:45:25.090Z,8
2017-01-10T06:46:25.044Z,12
2017-01-10T06:47:25.007Z,16
2017-01-10T06:48:24.573Z,20
2017-01-10T06:49:24.528Z,20
2017-01-10T06:50:24.866Z,24
2017-01-10T06:51:24.833Z,28
2017-01-10T06:52:24.789Z,36
2017-01-10T06:53:24.785Z,36
2017-01-10T06:54:24.693Z,44
2017-01-10T06:55:24.651Z,52
2017-01-10T06:56:23.832Z,56
2017-01-10T06:57:24.558Z,68
2017-01-10T06:58:24.519Z,76
2017-01-10T06:59:23.710Z,88
2017-01-10T07:00:24.051Z,100
2017-01-10T07:01:24.384Z,116
2017-01-10T07:02:24.348Z,136
2017-01-10T07:03:24.298Z,156
2017-01-10T07:04:23.868Z,180
2017-01-10T07:05:23.830Z,212
2017-01-10T07:06:23.779Z,240
2017-01-10T07:07:23.362Z,272
2017-01-10T07:08:24.085Z,308
2017-01-10T07:09:23.651Z,352
2017-01-10T07:10:23.996Z,408
2017-01-10T07:11:23.948Z,468
2017-01-10T07:12:23.518Z,532
2017-01-10T07:13:23.868Z,600
2017-01-10T07:14:23.050Z,668
2017-01-10T07:15:23.795Z,724
2017-01-10T07:16:23.726Z,776
2017-01-10T07:17:23.684Z,832
2017-01-10T07:18:23.667Z,904
2017-01-10T07:19:23.599Z,1048
2017-01-10T07:20:23.561Z,1416
2017-01-10T07:21:23.509Z,1904
2017-01-10T07:22:23.083Z,2328
2017-01-10T07:23:23.031Z,2608
2017-01-10T07:24:23.378Z,2600
2017-01-10T07:25:23.331Z,2328
2017-01-10T07:26:23.286Z,2028
2017-01-10T07:27:23.249Z,1828
2017-01-10T07:28:23.205Z,1832
2017-01-10T07:29:23.156Z,2164
2017-01-10T07:30:22.726Z,2732
2017-01-10T07:31:22.684Z,3136
2017-01-10T07:32:23.025Z,3276
2017-01-10T07:33:22.990Z,3560
2017-01-10T07:34:22.171Z,4188
2017-01-10T07:35:22.893Z,4664
2017-01-10T07:36:22.470Z,4748
2017-01-10T07:37:22.424Z,4352
2017-01-10T07:38:22.379Z,3664
2017-01-10T07:39:22.723Z,2936
2017-01-10T07:40:21.908Z,2908
2017-01-10T07:41:22.254Z,3056
2017-01-10T07:42:22.599Z,3140
2017-01-10T07:43:22.563Z,2984
2017-01-10T07:44:22.512Z,2840
2017-01-10T07:45:22.083Z,2764
2017-01-10T07:46:22.424Z,2808
2017-01-10T07:47:21.998Z,2952
2017-01-10T07:48:22.339Z,3156
2017-01-10T07:49:21.907Z,3360
2017-01-10T07:50:21.874Z,3376
2017-01-10T07:51:22.210Z,3276
2017-01-10T07:52:21.784Z,3264
2017-01-10T07:53:21.750Z,3292
2017-01-10T07:54:22.080Z,3324
2017-01-10T07:55:21.653Z,3344
2017-01-10T07:56:21.607Z,3388
2017-01-10T07:57:21.949Z,3456
2017-01-10T07:58:21.909Z,3532
2017-01-10T07:59:21.867Z,3620
2017-01-10T08:00:21.436Z,3712
2017-01-10T08:01:21.393Z,3796
2017-01-10T08:02:21.744Z,3864
2017-01-10T08:03:21.706Z,3912
2017-01-10T08:04:21.272Z,3992
2017-01-10T08:05:21.226Z,4152
2017-01-10T08:06:21.567Z,4252
2017-01-10T08:07:21.521Z,4236
2017-01-10T08:08:20.711Z,4212
2017-01-10T08:09:21.438Z,4144
2017-01-10T08:10:21.392Z,4000
2017-01-10T08:11:21.353Z,3836
2017-01-10T08:12:21.311Z,3744
2017-01-10T08:13:21.263Z,3720
2017-01-10T08:14:20.837Z,3736
2017-01-10T08:15:21.180Z,3756
2017-01-10T08:16:21.135Z,3780
2017-01-10T08:17:21.094Z,3808
2017-01-10T08:18:21.052Z,3832
2017-01-10T08:19:20.619Z,3856
2017-01-10T08:20:20.962Z,3876
2017-01-10T08:21:20.916Z,3904
2017-01-10T08:22:20.490Z,3936
2017-01-10T08:23:20.839Z,3968
2017-01-10T08:24:20.791Z,4020
2017-01-10T08:25:20.360Z,4080
2017-01-10T08:26:20.705Z,4136
2017-01-10T08:27:20.664Z,4140
2017-01-10T08:28:20.631Z,4160
2017-01-10T08:29:20.576Z,4184
2017-01-10T08:30:20.533Z,4180
2017-01-10T08:31:20.115Z,4172
2017-01-10T08:32:20.453Z,4172
2017-01-10T08:33:20.022Z,4184
2017-01-10T08:34:19.974Z,4212
2017-01-10T08:35:20.308Z,4252
2017-01-10T08:36:19.894Z,4288
2017-01-10T08:37:19.844Z,4328
2017-01-10T08:38:20.187Z,4364
2017-01-10T08:39:20.140Z,4408
2017-01-10T08:40:19.330Z,4452
2017-01-10T08:41:19.670Z,4496
2017-01-10T08:42:20.010Z,4552
2017-01-10T08:43:19.980Z,4604
2017-01-10T08:44:19.539Z,4660
2017-01-10T08:45:19.887Z,4716
2017-01-10T08:46:19.845Z,4780
2017-01-10T08:47:19.805Z,4840
2017-01-10T08:48:19.751Z,4908
2017-01-10T08:49:19.720Z,4972
2017-01-10T08:50:19.283Z,5040
2017-01-10T08:51:19.235Z,5108
2017-01-10T08:52:19.580Z,5184
2017-01-10T08:53:19.538Z,5252
2017-01-10T08:54:19.493Z,5332
2017-01-10T08:55:19.066Z,5408
2017-01-10T08:56:19.411Z,5484
2017-01-10T08:57:19.387Z,5556
2017-01-10T08:58:18.934Z,5628
2017-01-10T08:59:19.273Z,5696
2017-01-10T09:00:19.255Z,5768
2017-01-10T09:01:19.190Z,5840
2017-01-10T09:02:18.761Z,5912
2017-01-10T09:03:19.106Z,5996
2017-01-10T09:04:18.291Z,6080
2017-01-10T09:05:18.636Z,6156
2017-01-10T09:06:18.987Z,6244
2017-01-10T09:07:18.549Z,6324
2017-01-10T09:08:18.894Z,6400
2017-01-10T09:09:18.463Z,6476
2017-01-10T09:10:18.802Z,6548
2017-01-10T09:11:18.757Z,6620
2017-01-10T09:12:18.717Z,6696
2017-01-10T09:13:18.674Z,6776
2017-01-10T09:14:18.245Z,6860
2017-01-10T09:15:18.588Z,6940
2017-01-10T09:16:18.543Z,7032
2017-01-10T09:17:17.731Z,7116
2017-01-10T09:18:18.460Z,7196
2017-01-10T09:19:18.034Z,7260
2017-01-10T09:20:18.378Z,7328
2017-01-10T09:21:18.333Z,7388
2017-01-10T09:22:18.289Z,7460
2017-01-10T09:23:18.260Z,7528
2017-01-10T09:24:18.205Z,7604
2017-01-10T09:25:18.162Z,7660
2017-01-10T09:26:17.732Z,7728
2017-01-10T09:27:18.073Z,7792
2017-01-10T09:28:17.652Z,7852
2017-01-10T09:29:17.995Z,7912
2017-01-10T09:30:17.562Z,7928
2017-01-10T09:31:17.902Z,7932
2017-01-10T09:32:17.865Z,7912
2017-01-10T09:33:17.823Z,7896
2017-01-10T09:34:17.779Z,7880
2017-01-10T09:35:17.747Z,7904
2017-01-10T09:36:17.690Z,7968
2017-01-10T09:37:17.654Z,8060
2017-01-10T09:38:17.220Z,8168
2017-01-10T09:39:17.572Z,8272
2017-01-10T09:40:17.891Z,8380
2017-01-10T09:41:17.546Z,8488
2017-01-10T09:42:17.056Z,8584
2017-01-10T09:43:17.408Z,8628
2017-01-10T09:44:17.358Z,8624
2017-01-10T09:45:17.319Z,8588
2017-01-10T09:46:17.281Z,8532
2017-01-10T09:47:17.229Z,8448
2017-01-10T09:48:16.805Z,8376
2017-01-10T09:49:17.141Z,8368
2017-01-10T09:50:17.100Z,8424
2017-01-10T09:51:17.055Z,8540
2017-01-10T09:52:16.653Z,8732
2017-01-10T09:53:16.582Z,8924
2017-01-10T09:54:16.931Z,9076
2017-01-10T09:55:16.882Z,9164
2017-01-10T09:56:16.872Z,9188
2017-01-10T09:57:16.810Z,9224
2017-01-10T09:58:16.373Z,9268
2017-01-10T09:59:16.712Z,9228
2017-01-10T10:00:16.674Z,9140
2017-01-10T10:01:16.639Z,9040
2017-01-10T10:02:16.600Z,8832
2017-01-10T10:03:16.549Z,8580
2017-01-10T10:04:16.123Z,8352
2017-01-10T10:05:16.460Z,8188
2017-01-10T10:06:15.657Z,8132
2017-01-10T10:07:16.376Z,8208
2017-01-10T10:08:16.340Z,8412
2017-01-10T10:09:16.289Z,8688
2017-01-10T10:10:16.255Z,9024
2017-01-10T10:11:16.217Z,9340
2017-01-10T10:12:15.780Z,9548
2017-01-10T10:13:15.738Z,9588
2017-01-10T10:14:15.693Z,9472
2017-01-10T10:15:15.652Z,9220
2017-01-10T10:16:15.992Z,8864
2017-01-10T10:17:15.949Z,8528
2017-01-10T10:18:15.915Z,8224
2017-01-10T10:19:15.874Z,7904
2017-01-10T10:20:15.053Z,7740
2017-01-10T10:21:15.399Z,7696
2017-01-10T10:22:15.356Z,7740
2017-01-10T10:23:15.699Z,7908
2017-01-10T10:24:15.280Z,8128
2017-01-10T10:25:15.617Z,8268
2017-01-10T10:26:15.573Z,8360
2017-01-10T10:27:14.759Z,8360
2017-01-10T10:28:15.099Z,8272
2017-01-10T10:29:15.056Z,8132
2017-01-10T10:30:15.012Z,7984
2017-01-10T10:31:14.974Z,7908
2017-01-10T10:32:15.314Z,7984
2017-01-10T10:33:15.295Z,8124
2017-01-10T10:34:15.237Z,8316
2017-01-10T10:35:15.198Z,8548
2017-01-10T10:36:15.143Z,8704
2017-01-10T10:37:14.719Z,8812
2017-01-10T10:38:15.058Z,8852
2017-01-10T10:39:15.008Z,8800
2017-01-10T10:40:14.970Z,8700
2017-01-10T10:41:14.546Z,8632
2017-01-10T10:42:14.493Z,8620
2017-01-10T10:43:14.836Z,8668
2017-01-10T10:44:14.803Z,8796
2017-01-10T10:45:14.753Z,8988
2017-01-10T10:46:13.936Z,9208
2017-01-10T10:47:14.669Z,9424
2017-01-10T10:48:14.631Z,9572
2017-01-10T10:49:14.580Z,9628
2017-01-10T10:50:14.552Z,9452
2017-01-10T10:51:14.495Z,9096
2017-01-10T10:52:14.070Z,8640
2017-01-10T10:53:14.418Z,8164
2017-01-10T10:54:14.373Z,7716
2017-01-10T10:55:14.331Z,7332
2017-01-10T10:56:14.286Z,6992
2017-01-10T10:57:14.251Z,6688
2017-01-10T10:58:14.199Z,6516
2017-01-10T10:59:14.156Z,6432
2017-01-10T11:00:14.118Z,6424
2017-01-10T11:01:13.684Z,6472
2017-01-10T11:02:13.645Z,6548
2017-01-10T11:03:13.986Z,6648
2017-01-10T11:04:13.961Z,6736
2017-01-10T11:05:13.902Z,6844
2017-01-10T11:06:13.857Z,6904
2017-01-10T11:07:13.826Z,6936
2017-01-10T11:08:13.773Z,6920
2017-01-10T11:09:13.733Z,6876
2017-01-10T11:10:13.307Z,6816
2017-01-10T11:11:13.268Z,6744
2017-01-10T11:12:13.606Z,6696
2017-01-10T11:13:13.185Z,6664
2017-01-10T11:14:13.137Z,6632
2017-01-10T11:15:14.401Z,6568
2017-01-10T11:16:14.167Z,6492
2017-01-10T11:17:12.629Z,6408
2017-01-10T11:18:12.581Z,6348
2017-01-10T11:19:13.315Z,6344
2017-01-10T11:20:13.267Z,6376
2017-01-10T11:21:12.841Z,6436
2017-01-10T11:22:13.179Z,6516
2017-01-10T11:23:12.755Z,6584
2017-01-10T11:24:13.094Z,6636
2017-01-10T11:25:12.681Z,6640
2017-01-10T11:26:13.015Z,6584
2017-01-10T11:27:12.589Z,6480
2017-01-10T11:28:12.546Z,6372
2017-01-10T11:29:12.886Z,6272
2017-01-10T11:30:12.860Z,6172
2017-01-10T11:31:12.809Z,6080
2017-01-10T11:32:12.763Z,6000
2017-01-10T11:33:12.716Z,5964
2017-01-10T11:34:11.907Z,5928
2017-01-10T11:35:12.631Z,5908
2017-01-10T11:36:12.590Z,5900
2017-01-10T11:37:12.545Z,5884
2017-01-10T11:38:12.122Z,5872
2017-01-10T11:39:12.463Z,5856
2017-01-10T11:40:12.036Z,5812
2017-01-10T11:41:11.997Z,5756
2017-01-10T11:42:11.953Z,5664
2017-01-10T11:43:11.907Z,5548
2017-01-10T11:44:12.247Z,5448
2017-01-10T11:45:11.820Z,5316
2017-01-10T11:46:11.779Z,5124
2017-01-10T11:47:12.132Z,4928
2017-01-10T11:48:11.700Z,4796
2017-01-10T11:49:10.883Z,4720
2017-01-10T11:50:12.002Z,4652
2017-01-10T11:51:11.951Z,4572
2017-01-10T11:52:11.911Z,4520
2017-01-10T11:53:11.490Z,4476
2017-01-10T11:54:11.841Z,4448
2017-01-10T11:55:11.784Z,4472
2017-01-10T11:56:11.745Z,4520
2017-01-10T11:57:11.319Z,4516
2017-01-10T11:58:11.290Z,4508
2017-01-10T11:59:11.625Z,4516
2017-01-10T12:00:11.187Z,4536
2017-01-10T12:01:11.149Z,4568
2017-01-10T12:02:11.483Z,4572
2017-01-10T12:03:11.055Z,4592
2017-01-10T12:04:11.016Z,4624
2017-01-10T12:05:11.170Z,4660
2017-01-10T12:06:10.923Z,4720
2017-01-10T12:07:11.276Z,4784
2017-01-10T12:08:10.841Z,4864
2017-01-10T12:09:10.796Z,4936
2017-01-10T12:10:11.138Z,4988
2017-01-10T12:11:11.102Z,5052
2017-01-10T12:12:11.053Z,5124
2017-01-10T12:13:10.244Z,5208
2017-01-10T12:14:10.965Z,5296
2017-01-10T12:15:10.547Z,5384
2017-01-10T12:16:10.888Z,5432
2017-01-10T12:17:10.841Z,5444
2017-01-10T12:18:10.803Z,5432
2017-01-10T12:19:10.751Z,5404
2017-01-10T12:20:10.324Z,5364
2017-01-10T12:21:10.668Z,5348
2017-01-10T12:22:10.628Z,5340
2017-01-10T12:23:10.581Z,5348
2017-01-10T12:24:10.154Z,5360
2017-01-10T12:25:10.500Z,5384
2017-01-10T12:26:10.067Z,5388
2017-01-10T12:27:10.411Z,5376
2017-01-10T12:28:10.392Z,5340
2017-01-10T12:29:09.938Z,5304
2017-01-10T12:30:09.897Z,5264
2017-01-10T12:31:10.242Z,5224
2017-01-10T12:32:10.195Z,5196
2017-01-10T12:33:10.154Z,5188
2017-01-10T12:34:10.110Z,5188
2017-01-10T12:35:09.678Z,5184
2017-01-10T12:36:10.030Z,5176
2017-01-10T12:37:09.982Z,5164
2017-01-10T12:38:09.939Z,5156
2017-01-10T12:39:09.896Z,5152
2017-01-10T12:40:09.467Z,5144
2017-01-10T12:41:09.807Z,5144
2017-01-10T12:42:09.782Z,5156
2017-01-10T12:43:09.726Z,5168
2017-01-10T12:44:09.684Z,5192
2017-01-10T12:45:09.637Z,5204
2017-01-10T12:46:09.593Z,5228
2017-01-10T12:47:09.164Z,5252
2017-01-10T12:48:09.162Z,5284
2017-01-10T12:49:09.473Z,5320
2017-01-10T12:50:09.426Z,5360
2017-01-10T12:51:08.999Z,5424
2017-01-10T12:52:08.957Z,5492
2017-01-10T12:53:09.300Z,5564
2017-01-10T12:54:09.252Z,5620
2017-01-10T12:55:08.835Z,5656
2017-01-10T12:56:09.166Z,5668
2017-01-10T12:57:09.126Z,5660
2017-01-10T12:58:09.080Z,5632
2017-01-10T12:59:09.038Z,5580
2017-01-10T13:00:08.999Z,5516
2017-01-10T13:01:08.956Z,5436
2017-01-10T13:02:08.525Z,5344
2017-01-10T13:03:08.103Z,5268
2017-01-10T13:04:08.831Z,5168
2017-01-10T13:05:08.780Z,5076
2017-01-10T13:06:08.747Z,4976
2017-01-10T13:07:08.699Z,4892
2017-01-10T13:08:07.889Z,4812
2017-01-10T13:09:08.613Z,4736
2017-01-10T13:10:08.566Z,4680
2017-01-10T13:11:08.144Z,4608
2017-01-10T13:12:08.486Z,4544
2017-01-10T13:13:08.056Z,4532
2017-01-10T13:14:08.947Z,4504
2017-01-10T13:15:07.969Z,4504
2017-01-10T13:16:08.317Z,4516
2017-01-10T13:17:08.277Z,4544
2017-01-10T13:18:07.840Z,4576
2017-01-10T13:19:08.185Z,4600
2017-01-10T13:20:07.762Z,4612
2017-01-10T13:21:08.096Z,4600
2017-01-10T13:22:08.061Z,4592
2017-01-10T13:23:07.631Z,4612
2017-01-10T13:24:07.967Z,4648
2017-01-10T13:25:07.546Z,4696
2017-01-10T13:26:07.895Z,4788
2017-01-10T13:27:07.454Z,4900
2017-01-10T13:28:07.801Z,5036
2017-01-10T13:29:07.770Z,5176
2017-01-10T13:30:07.331Z,5344
2017-01-10T13:31:07.298Z,5528
2017-01-10T13:32:07.248Z,5696
2017-01-10T13:33:06.816Z,5836
2017-01-10T13:34:07.157Z,5952
2017-01-10T13:35:07.499Z,6028
2017-01-10T13:36:07.546Z,6068
2017-01-10T13:37:07.048Z,6108
2017-01-10T13:38:06.980Z,6144
2017-01-10T13:39:07.334Z,6172
2017-01-10T13:40:06.898Z,6184
2017-01-10T13:41:07.263Z,6176
2017-01-10T13:42:07.201Z,6140
2017-01-10T13:43:06.773Z,6080
2017-01-10T13:44:07.119Z,5984
2017-01-10T13:45:05.934Z,5868
2017-01-10T13:46:07.034Z,5760
2017-01-10T13:47:06.989Z,5656
2017-01-10T13:48:06.946Z,5532
2017-01-10T13:49:06.899Z,5456
2017-01-10T13:50:06.862Z,5416
2017-01-10T13:51:06.042Z,5376
2017-01-10T13:52:06.775Z,5296
2017-01-10T13:53:06.361Z,5168
2017-01-10T13:54:06.696Z,5016
2017-01-10T13:55:06.651Z,4880
2017-01-10T13:56:06.220Z,4828
2017-01-10T13:57:06.173Z,4844
2017-01-10T13:58:06.514Z,4856
2017-01-10T13:59:06.476Z,4824
2017-01-10T14:00:06.085Z,4720
2017-01-10T14:01:06.391Z,4588
2017-01-10T14:02:06.352Z,4464